sensor_id;sensor_type;location;lat;lon;timestamp;pressure;altitude;pressure_sealevel;temperature;humidity
9307;BME280;4691;47.612;7.610;2023-06-14T00:01:46;97898.09;;;18.03;100.00
9307;BME280;4691;47.612;7.610;2023-06-14T00:04:12;97907.75;;;17.91;100.00
9307;BME280;4691;47.612;7.610;2023-06-14T00:06:47;97909.69;;;17.82;100.00
9307;BME280;4691;47.612;7.610;2023-06-14T00:09:13;97906.59;;;17.70;100.00
9307;BME280;4691;47.612;7.610;2023-06-14T00:11:41;97921.88;;;17.63;100.00
9307;BME280;4691;47.612;7.610;2023-06-14T00:14:07;97927.94;;;17.50;100.00
9307;BME280;4691;47.612;7.610;2023-06-14T00:16:33;97931.94;;;17.39;100.00
9307;BME280;4691;47.612;7.610;2023-06-14T00:19:02;97931.66;;;17.34;100.00
9307;BME280;4691;47.612;7.610;2023-06-14T00:21:31;97925.97;;;17.29;100.00
9307;BME280;4691;47.612;7.610;2023-06-14T00:24:00;97944.09;;;17.20;100.00
9307;BME280;4691;47.612;7.610;2023-06-14T00:26:29;97947.16;;;17.17;100.00
9307;BME280;4691;47.612;7.610;2023-06-14T00:28:54;97933.91;;;17.08;100.00
9307;BME280;4691;47.612;7.610;2023-06-14T00:31:27;97951.22;;;16.98;100.00
9307;BME280;4691;47.612;7.610;2023-06-14T00:33:53;97950.63;;;16.88;100.00
9307;BME280;4691;47.612;7.610;2023-06-14T00:36:18;97950.34;;;16.83;100.00
9307;BME280;4691;47.612;7.610;2023-06-14T00:38:47;97960.00;;;16.78;100.00
9307;BME280;4691;47.612;7.610;2023-06-14T00:41:15;97963.56;;;16.70;100.00
9307;BME280;4691;47.612;7.610;2023-06-14T00:43:46;97966.50;;;16.60;100.00
9307;BME280;4691;47.612;7.610;2023-06-14T00:46:19;97995.19;;;16.53;100.00
9307;BME280;4691;47.612;7.610;2023-06-14T00:48:45;97993.38;;;16.45;100.00
9307;BME280;4691;47.612;7.610;2023-06-14T00:51:16;97992.41;;;16.38;100.00
9307;BME280;4691;47.612;7.610;2023-06-14T00:53:42;98001.88;;;16.34;100.00
9307;BME280;4691;47.612;7.610;2023-06-14T00:56:12;98009.00;;;16.27;100.00
9307;BME280;4691;47.612;7.610;2023-06-14T00:58:41;98014.06;;;16.22;100.00
9307;BME280;4691;47.612;7.610;2023-06-14T01:01:13;98010.22;;;16.16;100.00
9307;BME280;4691;47.612;7.610;2023-06-14T01:03:44;98012.41;;;16.13;100.00
9307;BME280;4691;47.612;7.610;2023-06-14T01:06:31;98010.78;;;16.03;100.00
9307;BME280;4691;47.612;7.610;2023-06-14T01:09:10;98023.94;;;15.98;100.00
9307;BME280;4691;47.612;7.610;2023-06-14T01:14:28;98028.19;;;15.76;100.00
9307;BME280;4691;47.612;7.610;2023-06-14T01:16:56;98032.75;;;15.67;100.00
9307;BME280;4691;47.612;7.610;2023-06-14T01:19:26;98035.78;;;15.56;100.00
9307;BME280;4691;47.612;7.610;2023-06-14T01:21:56;98040.19;;;15.49;100.00
9307;BME280;4691;47.612;7.610;2023-06-14T01:24:21;98045.38;;;15.42;100.00
9307;BME280;4691;47.612;7.610;2023-06-14T01:26:52;98045.72;;;15.39;100.00
9307;BME280;4691;47.612;7.610;2023-06-14T01:29:22;98033.09;;;15.32;100.00
9307;BME280;4691;47.612;7.610;2023-06-14T01:31:47;98035.47;;;15.27;100.00
9307;BME280;4691;47.612;7.610;2023-06-14T01:34:14;98050.25;;;15.22;100.00
9307;BME280;4691;47.612;7.610;2023-06-14T01:36:41;98041.84;;;15.17;100.00
9307;BME280;4691;47.612;7.610;2023-06-14T01:39:14;98038.81;;;15.12;100.00
9307;BME280;4691;47.612;7.610;2023-06-14T01:41:43;98039.50;;;15.06;100.00
9307;BME280;4691;47.612;7.610;2023-06-14T01:44:12;98045.38;;;15.01;100.00
9307;BME280;4691;47.612;7.610;2023-06-14T01:46:39;98045.19;;;14.95;100.00
9307;BME280;4691;47.612;7.610;2023-06-14T01:49:05;98055.59;;;14.90;100.00
9307;BME280;4691;47.612;7.610;2023-06-14T01:51:31;98060.50;;;14.86;100.00
9307;BME280;4691;47.612;7.610;2023-06-14T01:53:56;98059.66;;;14.86;100.00
9307;BME280;4691;47.612;7.610;2023-06-14T01:56:22;98066.34;;;14.81;100.00
9307;BME280;4691;47.612;7.610;2023-06-14T01:58:47;98058.63;;;14.78;100.00
9307;BME280;4691;47.612;7.610;2023-06-14T02:01:13;98060.63;;;14.76;100.00
9307;BME280;4691;47.612;7.610;2023-06-14T02:03:41;98067.19;;;14.74;100.00
9307;BME280;4691;47.612;7.610;2023-06-14T02:06:07;98074.91;;;14.69;100.00
9307;BME280;4691;47.612;7.610;2023-06-14T02:08:32;98072.69;;;14.64;100.00
9307;BME280;4691;47.612;7.610;2023-06-14T02:10:58;98084.13;;;14.58;100.00
9307;BME280;4691;47.612;7.610;2023-06-14T02:13:23;98091.84;;;14.53;100.00
9307;BME280;4691;47.612;7.610;2023-06-14T02:15:59;98086.22;;;14.46;100.00
9307;BME280;4691;47.612;7.610;2023-06-14T02:19:30;98099.13;;;14.34;100.00
9307;BME280;4691;47.612;7.610;2023-06-14T02:21:56;98096.41;;;14.26;100.00
9307;BME280;4691;47.612;7.610;2023-06-14T02:24:21;98086.28;;;14.20;100.00
9307;BME280;4691;47.612;7.610;2023-06-14T02:26:46;98103.06;;;14.14;100.00
9307;BME280;4691;47.612;7.610;2023-06-14T02:29:11;98110.09;;;14.15;100.00
9307;BME280;4691;47.612;7.610;2023-06-14T02:31:40;98113.44;;;14.09;100.00
9307;BME280;4691;47.612;7.610;2023-06-14T02:34:06;98111.09;;;14.06;100.00
9307;BME280;4691;47.612;7.610;2023-06-14T02:36:34;98109.69;;;14.02;100.00
9307;BME280;4691;47.612;7.610;2023-06-14T02:38:59;98107.19;;;14.00;100.00
9307;BME280;4691;47.612;7.610;2023-06-14T02:41:25;98108.34;;;13.98;100.00
9307;BME280;4691;47.612;7.610;2023-06-14T02:43:51;98123.59;;;13.97;100.00
9307;BME280;4691;47.612;7.610;2023-06-14T02:46:16;98129.16;;;13.96;100.00
9307;BME280;4691;47.612;7.610;2023-06-14T02:48:41;98134.69;;;13.94;100.00
9307;BME280;4691;47.612;7.610;2023-06-14T02:51:06;98128.78;;;13.90;100.00
9307;BME280;4691;47.612;7.610;2023-06-14T02:53:33;98137.16;;;13.87;100.00
9307;BME280;4691;47.612;7.610;2023-06-14T02:55:59;98146.38;;;13.85;100.00
9307;BME280;4691;47.612;7.610;2023-06-14T02:58:24;98143.31;;;13.80;100.00
9307;BME280;4691;47.612;7.610;2023-06-14T03:00:50;98144.47;;;13.77;100.00
9307;BME280;4691;47.612;7.610;2023-06-14T03:03:17;98144.78;;;13.74;100.00
9307;BME280;4691;47.612;7.610;2023-06-14T03:05:45;98153.16;;;13.71;100.00
9307;BME280;4691;47.612;7.610;2023-06-14T03:08:18;98151.78;;;13.67;100.00
9307;BME280;4691;47.612;7.610;2023-06-14T03:10:45;98158.47;;;13.63;100.00
9307;BME280;4691;47.612;7.610;2023-06-14T03:13:11;98156.22;;;13.58;100.00
9307;BME280;4691;47.612;7.610;2023-06-14T03:15:37;98150.34;;;13.55;100.00
9307;BME280;4691;47.612;7.610;2023-06-14T03:18:03;98160.38;;;13.53;100.00
9307;BME280;4691;47.612;7.610;2023-06-14T03:20:29;98165.91;;;13.51;100.00
9307;BME280;4691;47.612;7.610;2023-06-14T03:22:59;98176.63;;;13.51;100.00
9307;BME280;4691;47.612;7.610;2023-06-14T03:25:24;98182.19;;;13.49;100.00
9307;BME280;4691;47.612;7.610;2023-06-14T03:27:51;98196.22;;;13.43;100.00
9307;BME280;4691;47.612;7.610;2023-06-14T03:30:16;98194.53;;;13.42;100.00
9307;BME280;4691;47.612;7.610;2023-06-14T03:32:42;98200.22;;;13.39;100.00
9307;BME280;4691;47.612;7.610;2023-06-14T03:35:07;98193.75;;;13.32;100.00
9307;BME280;4691;47.612;7.610;2023-06-14T03:37:33;98207.88;;;13.34;100.00
9307;BME280;4691;47.612;7.610;2023-06-14T03:39:58;98207.31;;;13.31;100.00
9307;BME280;4691;47.612;7.610;2023-06-14T03:42:23;98213.84;;;13.28;100.00
9307;BME280;4691;47.612;7.610;2023-06-14T03:44:48;98221.19;;;13.26;100.00
9307;BME280;4691;47.612;7.610;2023-06-14T03:47:14;98222.16;;;13.25;100.00
9307;BME280;4691;47.612;7.610;2023-06-14T03:49:40;98218.78;;;13.23;100.00
9307;BME280;4691;47.612;7.610;2023-06-14T03:52:06;98220.09;;;13.19;100.00
9307;BME280;4691;47.612;7.610;2023-06-14T03:54:31;98221.78;;;13.20;100.00
9307;BME280;4691;47.612;7.610;2023-06-14T03:56:58;98228.84;;;13.21;100.00
9307;BME280;4691;47.612;7.610;2023-06-14T03:59:23;98226.16;;;13.21;100.00
9307;BME280;4691;47.612;7.610;2023-06-14T04:01:49;98236.44;;;13.25;100.00
9307;BME280;4691;47.612;7.610;2023-06-14T04:04:14;98229.25;;;13.26;100.00
9307;BME280;4691;47.612;7.610;2023-06-14T04:06:41;98239.72;;;13.29;100.00
9307;BME280;4691;47.612;7.610;2023-06-14T04:09:07;98233.63;;;13.27;100.00
9307;BME280;4691;47.612;7.610;2023-06-14T04:11:33;98237.56;;;13.23;100.00
9307;BME280;4691;47.612;7.610;2023-06-14T04:13:58;98241.88;;;13.16;100.00
9307;BME280;4691;47.612;7.610;2023-06-14T04:16:23;98234.81;;;13.15;100.00
9307;BME280;4691;47.612;7.610;2023-06-14T04:18:49;98250.91;;;13.15;100.00
9307;BME280;4691;47.612;7.610;2023-06-14T04:21:17;98247.78;;;13.19;100.00
9307;BME280;4691;47.612;7.610;2023-06-14T04:23:46;98236.22;;;13.19;100.00
9307;BME280;4691;47.612;7.610;2023-06-14T04:26:11;98242.94;;;13.23;100.00
9307;BME280;4691;47.612;7.610;2023-06-14T04:28:37;98245.91;;;13.29;100.00
9307;BME280;4691;47.612;7.610;2023-06-14T04:31:08;98246.44;;;13.33;100.00
9307;BME280;4691;47.612;7.610;2023-06-14T04:33:37;98249.38;;;13.40;100.00
9307;BME280;4691;47.612;7.610;2023-06-14T04:36:10;98255.16;;;13.45;100.00
9307;BME280;4691;47.612;7.610;2023-06-14T04:45:21;98257.72;;;13.64;100.00
9307;BME280;4691;47.612;7.610;2023-06-14T04:47:47;98261.63;;;13.70;100.00
9307;BME280;4691;47.612;7.610;2023-06-14T04:50:12;98271.59;;;13.78;100.00
9307;BME280;4691;47.612;7.610;2023-06-14T04:52:38;98264.47;;;13.86;100.00
9307;BME280;4691;47.612;7.610;2023-06-14T04:55:03;98266.53;;;13.92;100.00
9307;BME280;4691;47.612;7.610;2023-06-14T04:57:29;98262.91;;;14.02;100.00
9307;BME280;4691;47.612;7.610;2023-06-14T04:59:54;98267.81;;;14.06;100.00
9307;BME280;4691;47.612;7.610;2023-06-14T05:02:24;98278.97;;;14.11;100.00
9307;BME280;4691;47.612;7.610;2023-06-14T05:04:50;98276.78;;;14.15;100.00
9307;BME280;4691;47.612;7.610;2023-06-14T05:07:15;98278.88;;;14.21;100.00
9307;BME280;4691;47.612;7.610;2023-06-14T05:09:40;98229.31;;;14.24;100.00
9307;BME280;4691;47.612;7.610;2023-06-14T05:12:06;98240.28;;;14.30;100.00
9307;BME280;4691;47.612;7.610;2023-06-14T05:14:35;98248.06;;;14.33;100.00
9307;BME280;4691;47.612;7.610;2023-06-14T05:17:01;98263.56;;;14.40;100.00
9307;BME280;4691;47.612;7.610;2023-06-14T05:19:27;98268.28;;;14.46;100.00
9307;BME280;4691;47.612;7.610;2023-06-14T05:21:52;98255.22;;;14.51;100.00
9307;BME280;4691;47.612;7.610;2023-06-14T05:24:18;98266.22;;;14.57;100.00
9307;BME280;4691;47.612;7.610;2023-06-14T05:26:43;98255.66;;;14.64;100.00
9307;BME280;4691;47.612;7.610;2023-06-14T05:29:09;98256.72;;;14.71;100.00
9307;BME280;4691;47.612;7.610;2023-06-14T05:31:34;98254.38;;;14.76;100.00
9307;BME280;4691;47.612;7.610;2023-06-14T05:33:59;98247.00;;;14.78;100.00
9307;BME280;4691;47.612;7.610;2023-06-14T05:36:25;98243.00;;;14.83;100.00
9307;BME280;4691;47.612;7.610;2023-06-14T05:38:51;98242.34;;;14.89;100.00
9307;BME280;4691;47.612;7.610;2023-06-14T05:41:16;98249.47;;;14.98;100.00
9307;BME280;4691;47.612;7.610;2023-06-14T05:43:41;98245.47;;;15.10;100.00
9307;BME280;4691;47.612;7.610;2023-06-14T05:46:07;98244.16;;;15.22;100.00
9307;BME280;4691;47.612;7.610;2023-06-14T05:48:32;98243.19;;;15.32;100.00
9307;BME280;4691;47.612;7.610;2023-06-14T05:50:58;98260.06;;;15.42;100.00
9307;BME280;4691;47.612;7.610;2023-06-14T05:53:23;98245.41;;;15.44;100.00
9307;BME280;4691;47.612;7.610;2023-06-14T05:55:50;98249.78;;;15.45;100.00
9307;BME280;4691;47.612;7.610;2023-06-14T05:58:18;98258.06;;;15.52;100.00
9307;BME280;4691;47.612;7.610;2023-06-14T06:00:43;98260.63;;;15.62;100.00
9307;BME280;4691;47.612;7.610;2023-06-14T06:03:09;98244.63;;;15.68;100.00
9307;BME280;4691;47.612;7.610;2023-06-14T06:05:36;98237.25;;;15.79;100.00
9307;BME280;4691;47.612;7.610;2023-06-14T06:08:01;98226.13;;;15.82;100.00
9307;BME280;4691;47.612;7.610;2023-06-14T06:10:27;98235.25;;;15.89;100.00
9307;BME280;4691;47.612;7.610;2023-06-14T06:12:52;98235.44;;;15.96;100.00
9307;BME280;4691;47.612;7.610;2023-06-14T06:15:19;98231.19;;;16.09;100.00
9307;BME280;4691;47.612;7.610;2023-06-14T06:17:44;98224.63;;;16.12;100.00
9307;BME280;4691;47.612;7.610;2023-06-14T06:20:10;98230.69;;;16.22;100.00
9307;BME280;4691;47.612;7.610;2023-06-14T06:22:37;98235.22;;;16.38;100.00
9307;BME280;4691;47.612;7.610;2023-06-14T06:25:03;98215.97;;;16.41;100.00
9307;BME280;4691;47.612;7.610;2023-06-14T06:27:28;98234.53;;;16.52;100.00
9307;BME280;4691;47.612;7.610;2023-06-14T06:29:53;98235.53;;;16.60;100.00
9307;BME280;4691;47.612;7.610;2023-06-14T06:32:18;98223.00;;;16.67;100.00
9307;BME280;4691;47.612;7.610;2023-06-14T06:34:44;98238.69;;;16.80;100.00
9307;BME280;4691;47.612;7.610;2023-06-14T06:37:10;98219.63;;;16.81;100.00
9307;BME280;4691;47.612;7.610;2023-06-14T06:39:35;98220.13;;;16.85;100.00
9307;BME280;4691;47.612;7.610;2023-06-14T06:42:00;98222.31;;;16.89;100.00
9307;BME280;4691;47.612;7.610;2023-06-14T06:44:26;98226.69;;;16.98;100.00
9307;BME280;4691;47.612;7.610;2023-06-14T06:46:51;98228.84;;;17.03;100.00
9307;BME280;4691;47.612;7.610;2023-06-14T06:49:16;98233.03;;;17.06;100.00
9307;BME280;4691;47.612;7.610;2023-06-14T06:51:42;98238.22;;;17.15;100.00
9307;BME280;4691;47.612;7.610;2023-06-14T06:54:08;98232.78;;;17.32;100.00
9307;BME280;4691;47.612;7.610;2023-06-14T06:56:34;98228.19;;;17.32;100.00
9307;BME280;4691;47.612;7.610;2023-06-14T06:59:00;98231.56;;;17.34;100.00
9307;BME280;4691;47.612;7.610;2023-06-14T07:01:25;98235.84;;;17.52;100.00
9307;BME280;4691;47.612;7.610;2023-06-14T07:03:51;98242.53;;;17.64;100.00
9307;BME280;4691;47.612;7.610;2023-06-14T07:06:16;98240.97;;;17.70;100.00
9307;BME280;4691;47.612;7.610;2023-06-14T07:08:44;98231.34;;;17.75;100.00
9307;BME280;4691;47.612;7.610;2023-06-14T07:11:09;98235.00;;;17.82;100.00
9307;BME280;4691;47.612;7.610;2023-06-14T07:13:34;98243.41;;;17.88;100.00
9307;BME280;4691;47.612;7.610;2023-06-14T07:16:00;98240.19;;;17.92;100.00
9307;BME280;4691;47.612;7.610;2023-06-14T07:18:26;98234.47;;;18.10;100.00
9307;BME280;4691;47.612;7.610;2023-06-14T07:20:52;98239.72;;;18.12;100.00
9307;BME280;4691;47.612;7.610;2023-06-14T07:23:17;98237.97;;;18.19;100.00
9307;BME280;4691;47.612;7.610;2023-06-14T07:25:42;98230.44;;;18.29;100.00
9307;BME280;4691;47.612;7.610;2023-06-14T07:28:07;98244.25;;;18.34;100.00
9307;BME280;4691;47.612;7.610;2023-06-14T07:30:33;98240.50;;;18.35;100.00
9307;BME280;4691;47.612;7.610;2023-06-14T07:32:58;98240.25;;;18.45;100.00
9307;BME280;4691;47.612;7.610;2023-06-14T07:35:23;98235.03;;;18.58;100.00
9307;BME280;4691;47.612;7.610;2023-06-14T07:37:49;98238.75;;;18.57;100.00
9307;BME280;4691;47.612;7.610;2023-06-14T07:40:15;98244.41;;;18.70;100.00
9307;BME280;4691;47.612;7.610;2023-06-14T07:42:40;98242.00;;;18.76;100.00
9307;BME280;4691;47.612;7.610;2023-06-14T07:45:06;98236.50;;;18.84;100.00
9307;BME280;4691;47.612;7.610;2023-06-14T07:47:32;98233.69;;;18.92;100.00
9307;BME280;4691;47.612;7.610;2023-06-14T07:49:58;98234.53;;;19.07;100.00
9307;BME280;4691;47.612;7.610;2023-06-14T07:52:23;98217.44;;;19.07;100.00
9307;BME280;4691;47.612;7.610;2023-06-14T07:54:48;98223.41;;;19.17;100.00
9307;BME280;4691;47.612;7.610;2023-06-14T07:57:14;98235.91;;;19.33;100.00
9307;BME280;4691;47.612;7.610;2023-06-14T07:59:39;98231.13;;;19.35;100.00
9307;BME280;4691;47.612;7.610;2023-06-14T08:02:04;98231.00;;;19.43;100.00
9307;BME280;4691;47.612;7.610;2023-06-14T08:04:31;98225.63;;;19.65;100.00
9307;BME280;4691;47.612;7.610;2023-06-14T08:06:56;98215.16;;;19.62;100.00
9307;BME280;4691;47.612;7.610;2023-06-14T08:09:22;98216.38;;;19.59;100.00
9307;BME280;4691;47.612;7.610;2023-06-14T08:11:48;98213.41;;;19.69;100.00
9307;BME280;4691;47.612;7.610;2023-06-14T08:14:13;98197.91;;;19.84;100.00
9307;BME280;4691;47.612;7.610;2023-06-14T08:16:38;98197.47;;;20.09;100.00
9307;BME280;4691;47.612;7.610;2023-06-14T08:19:03;98197.75;;;20.14;100.00
9307;BME280;4691;47.612;7.610;2023-06-14T08:21:29;98203.31;;;20.06;100.00
9307;BME280;4691;47.612;7.610;2023-06-14T08:23:55;98210.06;;;20.16;100.00
9307;BME280;4691;47.612;7.610;2023-06-14T08:26:21;98201.84;;;20.31;100.00
9307;BME280;4691;47.612;7.610;2023-06-14T08:28:46;98198.72;;;20.28;100.00
9307;BME280;4691;47.612;7.610;2023-06-14T08:33:42;98201.13;;;20.72;100.00
9307;BME280;4691;47.612;7.610;2023-06-14T08:36:08;98197.00;;;20.83;100.00
9307;BME280;4691;47.612;7.610;2023-06-14T08:38:38;98195.34;;;20.82;100.00
9307;BME280;4691;47.612;7.610;2023-06-14T08:41:08;98203.69;;;20.80;100.00
9307;BME280;4691;47.612;7.610;2023-06-14T08:43:39;98214.72;;;21.07;100.00
9307;BME280;4691;47.612;7.610;2023-06-14T08:46:19;98213.59;;;20.95;100.00
9307;BME280;4691;47.612;7.610;2023-06-14T08:49:00;98197.16;;;21.16;100.00
9307;BME280;4691;47.612;7.610;2023-06-14T08:51:30;98193.13;;;21.47;100.00
9307;BME280;4691;47.612;7.610;2023-06-14T08:54:38;98207.84;;;21.72;100.00
9307;BME280;4691;47.612;7.610;2023-06-14T08:58:16;98195.31;;;21.85;100.00
9307;BME280;4691;47.612;7.610;2023-06-14T09:00:58;98197.63;;;21.88;100.00
9307;BME280;4691;47.612;7.610;2023-06-14T09:03:43;98183.19;;;22.14;100.00
9307;BME280;4691;47.612;7.610;2023-06-14T09:06:24;98172.75;;;22.24;100.00
9307;BME280;4691;47.612;7.610;2023-06-14T09:09:13;98171.47;;;22.40;100.00
9307;BME280;4691;47.612;7.610;2023-06-14T09:15:17;98170.34;;;22.94;100.00
9307;BME280;4691;47.612;7.610;2023-06-14T09:21:37;98137.84;;;22.93;100.00
9307;BME280;4691;47.612;7.610;2023-06-14T09:24:25;98135.34;;;23.36;100.00
9307;BME280;4691;47.612;7.610;2023-06-14T09:27:08;98124.78;;;23.53;100.00
9307;BME280;4691;47.612;7.610;2023-06-14T09:30:22;98105.44;;;23.86;100.00
9307;BME280;4691;47.612;7.610;2023-06-14T09:43:22;98068.28;;;24.72;100.00
9307;BME280;4691;47.612;7.610;2023-06-14T09:49:23;98041.56;;;25.77;100.00
9307;BME280;4691;47.612;7.610;2023-06-14T09:52:35;98028.34;;;26.44;100.00
9307;BME280;4691;47.612;7.610;2023-06-14T09:59:08;98044.06;;;26.61;100.00
9307;BME280;4691;47.612;7.610;2023-06-14T10:09:36;97899.31;;;30.35;100.00
9307;BME280;4691;47.612;7.610;2023-06-14T10:12:50;97907.09;;;29.96;100.00
9307;BME280;4691;47.612;7.610;2023-06-14T10:26:02;97855.88;;;31.35;100.00
9307;BME280;4691;47.612;7.610;2023-06-14T10:50:53;97794.91;;;32.61;100.00
9307;BME280;4691;47.612;7.610;2023-06-14T10:57:51;97797.19;;;33.23;100.00
9307;BME280;4691;47.612;7.610;2023-06-14T11:00:41;97789.81;;;33.13;100.00
9307;BME280;4691;47.612;7.610;2023-06-14T11:13:29;97763.09;;;33.75;100.00
9307;BME280;4691;47.612;7.610;2023-06-14T11:23:11;97797.91;;;31.40;100.00
9307;BME280;4691;47.612;7.610;2023-06-14T11:25:57;97799.31;;;32.13;100.00
9307;BME280;4691;47.612;7.610;2023-06-14T11:28:40;97795.38;;;32.24;100.00
9307;BME280;4691;47.612;7.610;2023-06-14T11:31:20;97789.47;;;31.86;100.00
9307;BME280;4691;47.612;7.610;2023-06-14T11:33:59;97788.34;;;31.97;100.00
9307;BME280;4691;47.612;7.610;2023-06-14T11:36:33;97766.16;;;33.50;100.00
9307;BME280;4691;47.612;7.610;2023-06-14T11:46:15;97719.72;;;34.09;100.00
9307;BME280;4691;47.612;7.610;2023-06-14T11:48:44;97751.09;;;34.04;100.00
9307;BME280;4691;47.612;7.610;2023-06-14T11:54:43;97712.16;;;35.31;100.00
9307;BME280;4691;47.612;7.610;2023-06-14T11:57:20;97657.66;;;35.86;100.00
9307;BME280;4691;47.612;7.610;2023-06-14T11:59:49;97728.94;;;33.61;100.00
9307;BME280;4691;47.612;7.610;2023-06-14T12:02:40;97703.09;;;34.28;100.00
9307;BME280;4691;47.612;7.610;2023-06-14T12:05:06;97740.50;;;32.41;100.00
9307;BME280;4691;47.612;7.610;2023-06-14T12:08:00;97729.31;;;34.16;100.00
9307;BME280;4691;47.612;7.610;2023-06-14T12:10:50;97693.66;;;34.94;100.00
9307;BME280;4691;47.612;7.610;2023-06-14T12:13:28;97681.78;;;34.75;100.00
9307;BME280;4691;47.612;7.610;2023-06-14T12:16:12;97690.63;;;35.79;100.00
9307;BME280;4691;47.612;7.610;2023-06-14T12:18:39;97690.31;;;34.26;100.00
9307;BME280;4691;47.612;7.610;2023-06-14T12:21:08;97725.09;;;33.04;100.00
9307;BME280;4691;47.612;7.610;2023-06-14T12:24:30;97674.63;;;35.01;100.00
9307;BME280;4691;47.612;7.610;2023-06-14T12:27:00;97683.16;;;34.91;100.00
9307;BME280;4691;47.612;7.610;2023-06-14T12:29:31;97658.44;;;34.76;100.00
9307;BME280;4691;47.612;7.610;2023-06-14T12:32:00;97696.19;;;35.09;100.00
9307;BME280;4691;47.612;7.610;2023-06-14T12:35:03;97666.09;;;34.98;100.00
9307;BME280;4691;47.612;7.610;2023-06-14T12:37:43;97647.19;;;36.19;100.00
9307;BME280;4691;47.612;7.610;2023-06-14T12:40:38;97662.25;;;35.13;100.00
9307;BME280;4691;47.612;7.610;2023-06-14T12:43:29;97651.03;;;35.18;100.00
9307;BME280;4691;47.612;7.610;2023-06-14T12:46:03;97683.84;;;34.50;100.00
9307;BME280;4691;47.612;7.610;2023-06-14T12:49:01;97642.63;;;36.46;100.00
9307;BME280;4691;47.612;7.610;2023-06-14T12:51:39;97638.53;;;35.84;100.00
9307;BME280;4691;47.612;7.610;2023-06-14T12:54:20;97670.34;;;34.62;100.00
9307;BME280;4691;47.612;7.610;2023-06-14T12:56:47;97696.56;;;33.75;100.00
9307;BME280;4691;47.612;7.610;2023-06-14T12:59:16;97680.25;;;35.29;100.00
9307;BME280;4691;47.612;7.610;2023-06-14T13:01:46;97646.28;;;35.60;100.00
9307;BME280;4691;47.612;7.610;2023-06-14T13:04:18;97640.63;;;35.37;100.00
9307;BME280;4691;47.612;7.610;2023-06-14T13:06:46;97681.41;;;34.30;100.00
9307;BME280;4691;47.612;7.610;2023-06-14T13:09:12;97690.97;;;34.56;100.00
9307;BME280;4691;47.612;7.610;2023-06-14T13:11:38;97675.53;;;33.93;100.00
9307;BME280;4691;47.612;7.610;2023-06-14T13:14:03;97712.16;;;33.71;100.00
9307;BME280;4691;47.612;7.610;2023-06-14T13:16:29;97675.97;;;34.90;100.00
9307;BME280;4691;47.612;7.610;2023-06-14T13:18:55;97671.31;;;35.60;100.00
9307;BME280;4691;47.612;7.610;2023-06-14T13:21:20;97650.19;;;36.76;100.00
9307;BME280;4691;47.612;7.610;2023-06-14T13:23:46;97617.72;;;36.40;100.00
9307;BME280;4691;47.612;7.610;2023-06-14T13:26:11;97660.22;;;36.10;100.00
9307;BME280;4691;47.612;7.610;2023-06-14T13:28:37;97651.03;;;36.54;100.00
9307;BME280;4691;47.612;7.610;2023-06-14T13:31:02;97613.19;;;36.76;100.00
9307;BME280;4691;47.612;7.610;2023-06-14T13:33:31;97623.41;;;37.20;100.00
9307;BME280;4691;47.612;7.610;2023-06-14T13:35:59;97648.00;;;35.00;100.00
9307;BME280;4691;47.612;7.610;2023-06-14T13:38:25;97639.59;;;35.47;100.00
9307;BME280;4691;47.612;7.610;2023-06-14T13:40:53;97646.81;;;35.34;100.00
9307;BME280;4691;47.612;7.610;2023-06-14T13:43:24;97663.03;;;35.82;100.00
9307;BME280;4691;47.612;7.610;2023-06-14T13:45:55;97661.03;;;36.33;100.00
9307;BME280;4691;47.612;7.610;2023-06-14T13:48:23;97655.03;;;36.93;100.00
9307;BME280;4691;47.612;7.610;2023-06-14T13:50:49;97685.38;;;35.08;100.00
9307;BME280;4691;47.612;7.610;2023-06-14T13:53:15;97680.38;;;34.91;100.00
9307;BME280;4691;47.612;7.610;2023-06-14T13:55:43;97665.03;;;34.80;100.00
9307;BME280;4691;47.612;7.610;2023-06-14T13:58:11;97675.28;;;34.65;100.00
9307;BME280;4691;47.612;7.610;2023-06-14T14:00:42;97678.28;;;35.16;100.00
9307;BME280;4691;47.612;7.610;2023-06-14T14:03:07;97642.38;;;35.61;100.00
9307;BME280;4691;47.612;7.610;2023-06-14T14:05:36;97681.41;;;34.30;100.00
9307;BME280;4691;47.612;7.610;2023-06-14T14:08:19;97687.56;;;35.25;100.00
9307;BME280;4691;47.612;7.610;2023-06-14T14:10:50;97684.19;;;34.81;100.00
9307;BME280;4691;47.612;7.610;2023-06-14T14:13:22;97666.94;;;33.95;100.00
9307;BME280;4691;47.612;7.610;2023-06-14T14:16:16;97686.22;;;33.38;100.00
9307;BME280;4691;47.612;7.610;2023-06-14T14:18:42;97677.25;;;33.70;100.00
9307;BME280;4691;47.612;7.610;2023-06-14T14:21:19;97674.16;;;34.15;100.00
9307;BME280;4691;47.612;7.610;2023-06-14T14:23:55;97665.75;;;34.72;100.00
9307;BME280;4691;47.612;7.610;2023-06-14T14:26:21;97664.34;;;34.88;100.00
9307;BME280;4691;47.612;7.610;2023-06-14T14:28:50;97657.69;;;35.03;100.00
9307;BME280;4691;47.612;7.610;2023-06-14T14:31:18;97653.66;;;34.95;100.00
9307;BME280;4691;47.612;7.610;2023-06-14T14:33:47;97659.78;;;35.25;100.00
9307;BME280;4691;47.612;7.610;2023-06-14T14:36:12;97658.06;;;34.96;100.00
9307;BME280;4691;47.612;7.610;2023-06-14T14:38:38;97683.97;;;34.78;100.00
9307;BME280;4691;47.612;7.610;2023-06-14T14:41:04;97683.91;;;33.69;100.00
9307;BME280;4691;47.612;7.610;2023-06-14T14:43:30;97665.13;;;34.42;100.00
9307;BME280;4691;47.612;7.610;2023-06-14T14:45:56;97678.03;;;34.33;100.00
9307;BME280;4691;47.612;7.610;2023-06-14T14:48:21;97704.88;;;34.18;100.00
9307;BME280;4691;47.612;7.610;2023-06-14T14:50:47;97668.34;;;34.82;100.00
9307;BME280;4691;47.612;7.610;2023-06-14T14:53:13;97664.25;;;35.76;100.00
9307;BME280;4691;47.612;7.610;2023-06-14T14:55:42;97661.53;;;35.48;100.00
9307;BME280;4691;47.612;7.610;2023-06-14T14:58:07;97664.09;;;35.31;100.00
9307;BME280;4691;47.612;7.610;2023-06-14T15:00:33;97686.53;;;35.21;100.00
9307;BME280;4691;47.612;7.610;2023-06-14T15:02:58;97674.38;;;35.44;100.00
9307;BME280;4691;47.612;7.610;2023-06-14T15:05:26;97690.38;;;34.92;100.00
9307;BME280;4691;47.612;7.610;2023-06-14T15:07:52;97679.06;;;35.02;100.00
9307;BME280;4691;47.612;7.610;2023-06-14T15:10:17;97688.06;;;34.80;100.00
9307;BME280;4691;47.612;7.610;2023-06-14T15:12:43;97697.72;;;33.74;100.00
9307;BME280;4691;47.612;7.610;2023-06-14T15:15:09;97706.50;;;34.00;100.00